createdAt,value
2023-01-28T00:01:35.556Z,16.50
2023-01-28T00:06:37.779Z,17.23
2023-01-28T00:11:39.452Z,14.52
2023-01-28T00:16:41.132Z,13.27
2023-01-28T00:21:43.125Z,13.85
2023-01-28T00:26:45.061Z,13.65
2023-01-28T00:31:46.819Z,13.27
2023-01-28T00:36:57.314Z,12.55
2023-01-28T00:41:58.996Z,12.05
2023-01-28T00:47:00.997Z,12.77
2023-01-28T00:52:03.014Z,12.80
2023-01-28T00:57:04.765Z,12.77
2023-01-28T01:02:12.599Z,11.93
2023-01-28T01:07:14.450Z,12.77
2023-01-28T01:12:16.133Z,13.63
2023-01-28T01:17:18.259Z,12.60
2023-01-28T01:22:19.873Z,13.80
2023-01-28T01:27:21.637Z,14.45
2023-01-28T01:32:23.385Z,15.82
2023-01-28T01:37:25.399Z,15.80
2023-01-28T01:42:27.048Z,15.10
2023-01-28T01:47:55.141Z,14.93
2023-01-28T01:53:06.975Z,13.70
2023-01-28T01:58:13.571Z,12.57
2023-01-28T02:03:20.015Z,11.57
2023-01-28T02:08:21.996Z,8.30
2023-01-28T02:13:29.202Z,11.15
2023-01-28T02:18:33.850Z,11.02
2023-01-28T02:24:13.118Z,11.05
2023-01-28T02:29:26.499Z,10.93
2023-01-28T02:34:40.894Z,10.07
2023-01-28T02:39:48.277Z,12.35
2023-01-28T02:44:50.296Z,13.77
2023-01-28T02:49:56.422Z,13.65
2023-01-28T02:55:13.517Z,13.93
2023-01-28T03:00:23.009Z,13.60
2023-01-28T03:06:02.971Z,14.35
2023-01-28T03:11:23.713Z,14.38
2023-01-28T03:16:43.834Z,13.95
2023-01-28T03:22:05.049Z,12.93
2023-01-28T03:27:40.766Z,12.00
2023-01-28T03:33:04.781Z,10.60
2023-01-28T03:38:18.248Z,9.73
2023-01-28T03:43:20.656Z,9.95
2023-01-28T03:48:27.187Z,8.15
2023-01-28T03:53:29.040Z,7.95
2023-01-28T03:58:52.955Z,10.27
2023-01-28T04:03:55.085Z,10.70
2023-01-28T04:09:00.883Z,9.27
2023-01-28T04:14:16.826Z,9.10
2023-01-28T04:19:28.855Z,8.15
2023-01-28T04:24:31.866Z,8.30
2023-01-28T04:29:33.724Z,7.85
2023-01-28T04:34:53.170Z,6.30
2023-01-28T04:40:12.902Z,6.90
2023-01-28T04:45:28.399Z,7.47
2023-01-28T04:50:53.238Z,7.07
2023-01-28T04:56:15.146Z,6.38
2023-01-28T05:01:18.041Z,5.75
2023-01-28T05:06:20.082Z,6.30
2023-01-28T05:11:22.191Z,6.38
2023-01-28T05:16:28.956Z,6.35
2023-01-28T05:21:32.106Z,6.75
2023-01-28T05:26:37.720Z,6.57
2023-01-28T05:31:40.139Z,7.50
2023-01-28T05:36:42.171Z,5.38
2023-01-28T05:41:59.860Z,5.50
2023-01-28T05:47:02.083Z,5.93
2023-01-28T05:52:20.436Z,6.43
2023-01-28T05:57:22.612Z,6.63
2023-01-28T06:02:25.573Z,6.18
2023-01-28T06:07:30.721Z,5.30
2023-01-28T06:12:32.868Z,7.30
2023-01-28T06:17:57.304Z,5.53
2023-01-28T06:23:04.161Z,6.90
2023-01-28T06:28:05.961Z,5.50
2023-01-28T06:33:07.588Z,6.15
2023-01-28T06:38:09.517Z,5.88
2023-01-28T06:43:11.170Z,6.68
2023-01-28T06:48:12.865Z,8.05
2023-01-28T06:53:15.170Z,6.93
2023-01-28T06:58:17.023Z,6.10
2023-01-28T07:03:18.687Z,4.25
2023-01-28T07:08:20.483Z,4.47
2023-01-28T07:13:22.192Z,4.85
2023-01-28T07:18:24.131Z,4.10
2023-01-28T07:23:27.699Z,3.47
2023-01-28T07:28:30.827Z,4.65
2023-01-28T07:33:32.440Z,4.93
2023-01-28T07:38:34.060Z,5.68
2023-01-28T07:43:35.682Z,4.97
2023-01-28T07:48:37.367Z,5.15
2023-01-28T07:53:39.163Z,4.10
2023-01-28T07:58:40.788Z,2.70
2023-01-28T08:03:42.404Z,3.38
2023-01-28T08:08:44.014Z,3.97
2023-01-28T08:13:45.665Z,2.83
2023-01-28T08:18:47.265Z,2.95
2023-01-28T08:23:48.957Z,2.70
2023-01-28T08:28:51.601Z,3.08
2023-01-28T08:33:53.396Z,2.58
2023-01-28T08:38:55.302Z,2.92
2023-01-28T08:43:57.083Z,2.03
2023-01-28T08:48:58.760Z,2.13
2023-01-28T08:54:00.843Z,2.25
2023-01-28T08:59:02.492Z,4.07
2023-01-28T09:04:04.208Z,3.45
2023-01-28T09:09:05.916Z,2.65
2023-01-28T09:14:07.627Z,2.25
2023-01-28T09:19:10.907Z,2.90
2023-01-28T09:24:12.598Z,2.28
2023-01-28T09:29:14.309Z,1.73
2023-01-28T09:34:16.054Z,2.08
2023-01-28T09:39:17.772Z,1.77
2023-01-28T09:44:34.587Z,1.75
2023-01-28T09:49:48.410Z,2.65
2023-01-28T09:54:55.456Z,1.70
2023-01-28T09:59:57.591Z,2.20
2023-01-28T10:05:23.184Z,1.80
2023-01-28T10:10:46.537Z,1.92
2023-01-28T10:15:58.477Z,2.05
2023-01-28T10:21:11.147Z,2.10
2023-01-28T10:26:24.263Z,2.50
2023-01-28T10:31:36.751Z,2.30
2023-01-28T10:36:38.728Z,2.28
2023-01-28T10:41:55.711Z,2.35
2023-01-28T10:47:11.008Z,2.78
2023-01-28T10:52:14.703Z,2.67
2023-01-28T10:57:18.914Z,1.83
2023-01-28T11:02:32.638Z,2.30
2023-01-28T11:07:34.714Z,2.10
2023-01-28T11:12:36.412Z,2.50
2023-01-28T11:17:39.314Z,2.10
2023-01-28T11:22:45.215Z,1.75
2023-01-28T11:27:49.169Z,1.95
2023-01-28T11:33:22.487Z,1.90
2023-01-28T11:38:26.185Z,1.50
2023-01-28T11:43:30.294Z,2.00
2023-01-28T11:48:48.201Z,1.65
2023-01-28T11:54:02.645Z,2.03
2023-01-28T11:59:04.688Z,2.58
2023-01-28T12:04:15.314Z,2.53
2023-01-28T12:09:48.944Z,2.20
2023-01-28T12:14:59.935Z,1.77
2023-01-28T12:20:31.313Z,2.08
2023-01-28T12:25:52.135Z,2.05
2023-01-28T12:31:02.912Z,2.10
2023-01-28T12:36:13.594Z,2.50
2023-01-28T12:41:23.633Z,2.63
2023-01-28T12:46:47.117Z,2.13
2023-01-28T12:51:51.517Z,2.47
2023-01-28T12:56:55.631Z,2.25
2023-01-28T13:02:14.687Z,2.13
2023-01-28T13:07:34.931Z,2.65
2023-01-28T13:12:40.601Z,2.00
2023-01-28T13:17:54.619Z,1.92
2023-01-28T13:23:21.855Z,1.88
2023-01-28T13:28:33.471Z,2.10
2023-01-28T13:33:38.295Z,2.22
2023-01-28T13:38:40.270Z,2.47
2023-01-28T13:43:42.740Z,2.67
2023-01-28T13:48:52.304Z,2.40
2023-01-28T13:54:00.711Z,2.10
2023-01-28T13:59:02.265Z,2.35
2023-01-28T14:04:28.591Z,2.80
2023-01-28T14:09:30.242Z,2.50
2023-01-28T14:15:04.645Z,2.70
2023-01-28T14:20:20.542Z,1.98
2023-01-28T14:25:43.118Z,2.05
2023-01-28T14:30:55.957Z,1.98
2023-01-28T14:35:57.661Z,1.63
2023-01-28T14:40:59.366Z,2.08
2023-01-28T14:46:16.381Z,1.92
2023-01-28T14:51:35.814Z,3.50
2023-01-28T14:56:37.534Z,2.35
2023-01-28T15:01:44.809Z,2.92
2023-01-28T15:11:52.218Z,2.63
2023-01-28T15:16:54.948Z,2.40
2023-01-28T15:22:05.634Z,2.35
2023-01-28T15:27:15.282Z,1.10
2023-01-28T15:32:27.577Z,1.50
2023-01-28T15:37:29.207Z,1.40
2023-01-28T15:42:31.842Z,1.00
2023-01-28T15:47:35.307Z,1.63
2023-01-28T15:52:40.713Z,1.10
2023-01-28T15:57:42.338Z,1.40
2023-01-28T16:02:47.168Z,1.30
2023-01-28T16:07:49.034Z,1.88
2023-01-28T16:12:53.199Z,1.77
2023-01-28T16:17:54.976Z,1.33
2023-01-28T16:23:02.483Z,1.50
2023-01-28T16:28:17.181Z,1.35
2023-01-28T16:33:21.975Z,1.75
2023-01-28T16:38:23.641Z,1.80
2023-01-28T16:43:25.258Z,1.63
2023-01-28T16:48:26.955Z,1.70
2023-01-28T16:53:33.560Z,3.90
2023-01-28T16:58:35.504Z,6.50
2023-01-28T17:03:37.674Z,1.30
2023-01-28T17:08:40.452Z,2.15
2023-01-28T17:13:42.029Z,1.88
2023-01-28T17:18:43.669Z,2.25
2023-01-28T17:23:45.518Z,1.95
2023-01-28T17:28:53.059Z,1.98
2023-01-28T17:33:56.354Z,2.28
2023-01-28T17:38:58.020Z,2.47
2023-01-28T17:43:59.876Z,2.97
2023-01-28T17:49:02.989Z,3.45
2023-01-28T17:54:04.911Z,3.05
2023-01-28T17:59:07.004Z,3.80
2023-01-28T18:04:10.175Z,4.30
2023-01-28T18:09:13.103Z,4.22
2023-01-28T18:14:19.433Z,7.00
2023-01-28T18:19:21.945Z,6.68
2023-01-28T18:24:25.227Z,6.28
2023-01-28T18:29:28.687Z,5.95
2023-01-28T18:34:31.629Z,6.68
2023-01-28T18:39:33.406Z,7.53
2023-01-28T18:44:35.184Z,7.43
2023-01-28T18:49:36.878Z,6.05
2023-01-28T18:54:38.645Z,7.50
2023-01-28T18:59:40.552Z,7.50
2023-01-28T19:04:42.936Z,8.15
2023-01-28T19:09:44.719Z,10.45
2023-01-28T19:14:47.517Z,10.98
2023-01-28T19:19:50.370Z,10.60
2023-01-28T19:24:52.796Z,22.13
2023-01-28T19:29:54.800Z,11.93
2023-01-28T19:34:56.488Z,11.07
2023-01-28T19:39:58.241Z,9.82
2023-01-28T19:45:01.422Z,10.65
2023-01-28T19:50:08.585Z,11.52
2023-01-28T19:55:10.606Z,15.50
2023-01-28T20:00:12.719Z,11.70
2023-01-28T20:05:15.224Z,10.65
2023-01-28T20:10:18.110Z,11.15
2023-01-28T20:15:19.791Z,9.63
2023-01-28T20:20:21.705Z,11.88
2023-01-28T20:25:23.358Z,10.15
2023-01-28T20:30:26.966Z,10.85
2023-01-28T20:35:28.631Z,11.50
2023-01-28T20:40:31.472Z,11.23
2023-01-28T20:45:36.059Z,12.02
2023-01-28T20:50:37.880Z,12.30
2023-01-28T20:55:39.651Z,49.97
2023-01-28T21:00:41.345Z,17.48
2023-01-28T21:05:47.507Z,13.80
2023-01-28T21:10:49.512Z,11.38
2023-01-28T21:15:53.318Z,11.77
2023-01-28T21:20:55.118Z,11.40
2023-01-28T21:26:01.834Z,11.25
2023-01-28T21:31:17.210Z,11.70
2023-01-28T21:36:43.410Z,10.02
2023-01-28T21:41:47.818Z,11.43
2023-01-28T21:46:49.905Z,11.95
2023-01-28T21:51:51.892Z,10.73
2023-01-28T21:56:53.702Z,11.30
2023-01-28T22:02:00.205Z,10.80
2023-01-28T22:07:05.901Z,10.97
2023-01-28T22:12:08.243Z,11.65
2023-01-28T22:17:11.770Z,10.77
2023-01-28T22:22:15.283Z,11.43
2023-01-28T22:27:16.956Z,10.90
2023-01-28T22:32:18.809Z,9.40
2023-01-28T22:37:20.512Z,11.50
2023-01-28T22:42:22.154Z,11.93
2023-01-28T22:47:23.882Z,11.35
2023-01-28T22:52:25.656Z,10.80
2023-01-28T22:57:27.345Z,10.52
2023-01-28T23:02:29.202Z,10.63
2023-01-28T23:07:31.113Z,9.77
2023-01-28T23:12:33.006Z,10.90
2023-01-28T23:17:53.131Z,8.75
2023-01-28T23:23:13.377Z,8.48
2023-01-28T23:28:15.688Z,8.50
2023-01-28T23:33:17.371Z,8.75
2023-01-28T23:38:19.057Z,8.18
2023-01-28T23:43:21.195Z,7.22
2023-01-28T23:48:22.849Z,7.80
2023-01-28T23:53:24.501Z,7.85
2023-01-28T23:58:42.184Z,7.57
